createdAt,value
2022-08-19T00:01:55.749Z,1.25
2022-08-19T00:04:26.836Z,1.25
2022-08-19T00:06:55.460Z,1.25
2022-08-19T00:09:25.722Z,1.60
2022-08-19T00:11:56.680Z,1.40
2022-08-19T00:14:28.036Z,1.35
2022-08-19T00:16:56.990Z,1.40
2022-08-19T00:19:25.845Z,1.48
2022-08-19T00:21:54.507Z,0.90
2022-08-19T00:24:23.130Z,1.65
2022-08-19T00:26:51.426Z,1.20
2022-08-19T00:29:22.188Z,1.13
2022-08-19T00:31:54.068Z,1.63
2022-08-19T00:34:23.357Z,1.65
2022-08-19T00:36:51.731Z,1.58
2022-08-19T00:39:20.315Z,1.23
2022-08-19T00:41:50.026Z,1.38
2022-08-19T00:44:21.517Z,1.45
2022-08-19T00:46:59.321Z,1.17
2022-08-19T00:49:32.724Z,1.52
2022-08-19T00:52:09.629Z,1.40
2022-08-19T00:54:40.200Z,1.20
2022-08-19T00:57:14.225Z,1.75
2022-08-19T01:00:00.850Z,1.55
2022-08-19T01:02:34.581Z,1.52
2022-08-19T01:05:05.471Z,1.73
2022-08-19T01:07:35.722Z,1.50
2022-08-19T01:10:09.730Z,1.25
2022-08-19T01:12:38.490Z,1.13
2022-08-19T01:15:09.161Z,1.55
2022-08-19T01:17:41.052Z,1.55
2022-08-19T01:20:13.487Z,2.40
2022-08-19T01:22:47.089Z,2.03
2022-08-19T01:25:16.888Z,1.90
2022-08-19T01:27:48.666Z,1.98
2022-08-19T01:30:23.592Z,1.75
2022-08-19T01:32:52.051Z,2.03
2022-08-19T01:35:20.535Z,1.08
2022-08-19T01:37:52.971Z,1.42
2022-08-19T01:40:22.954Z,1.30
2022-08-19T01:42:52.592Z,1.65
2022-08-19T01:45:22.631Z,1.75
2022-08-19T01:48:01.053Z,1.80
2022-08-19T01:50:31.549Z,1.52
2022-08-19T01:53:05.845Z,1.70
2022-08-19T01:55:40.959Z,1.90
2022-08-19T01:58:15.012Z,1.60
2022-08-19T02:00:43.938Z,1.77
2022-08-19T02:03:12.541Z,2.10
2022-08-19T02:05:42.768Z,2.10
2022-08-19T02:08:13.121Z,1.80
2022-08-19T02:10:43.468Z,1.95
2022-08-19T02:13:13.212Z,1.67
2022-08-19T02:15:41.956Z,1.75
2022-08-19T02:18:10.588Z,1.50
2022-08-19T02:20:39.986Z,2.30
2022-08-19T02:23:13.769Z,1.80
2022-08-19T02:25:46.664Z,2.00
2022-08-19T02:28:18.589Z,1.52
2022-08-19T02:30:48.658Z,2.00
2022-08-19T02:33:17.219Z,1.65
2022-08-19T02:35:45.902Z,2.10
2022-08-19T02:38:28.201Z,1.63
2022-08-19T02:41:00.540Z,1.42
2022-08-19T02:43:29.833Z,1.80
2022-08-19T02:46:02.163Z,1.88
2022-08-19T02:48:31.228Z,2.03
2022-08-19T02:51:00.604Z,1.50
2022-08-19T02:53:30.599Z,1.55
2022-08-19T02:56:00.402Z,1.63
2022-08-19T02:58:29.017Z,2.17
2022-08-19T03:00:58.777Z,1.70
2022-08-19T03:03:27.329Z,1.75
2022-08-19T03:06:06.355Z,2.22
2022-08-19T03:08:34.680Z,1.83
2022-08-19T03:11:05.182Z,2.03
2022-08-19T03:13:34.059Z,1.98
2022-08-19T03:16:02.226Z,1.70
2022-08-19T03:18:30.586Z,1.75
2022-08-19T03:20:59.045Z,1.85
2022-08-19T03:23:27.276Z,1.98
2022-08-19T03:26:03.859Z,1.70
2022-08-19T03:28:50.948Z,1.70
2022-08-19T03:31:42.129Z,1.90
2022-08-19T03:34:13.466Z,1.88
2022-08-19T03:36:42.494Z,1.65
2022-08-19T03:39:12.820Z,1.45
2022-08-19T03:41:45.607Z,1.38
2022-08-19T03:44:19.227Z,1.40
2022-08-19T03:46:49.089Z,2.00
2022-08-19T03:49:18.346Z,2.03
2022-08-19T03:51:48.591Z,2.20
2022-08-19T03:54:19.468Z,1.73
2022-08-19T03:56:50.184Z,2.08
2022-08-19T03:59:26.205Z,2.40
2022-08-19T04:01:54.978Z,2.67
2022-08-19T04:04:23.781Z,2.40
2022-08-19T04:06:52.503Z,2.40
2022-08-19T04:09:21.837Z,2.35
2022-08-19T04:11:52.296Z,2.15
2022-08-19T04:14:25.160Z,1.70
2022-08-19T04:16:53.941Z,1.38
2022-08-19T04:19:22.988Z,1.80
2022-08-19T04:21:53.720Z,1.02
2022-08-19T04:24:23.508Z,1.13
2022-08-19T04:26:52.482Z,0.90
2022-08-19T04:29:26.437Z,0.90
2022-08-19T04:31:56.707Z,0.98
2022-08-19T04:34:27.057Z,0.80
2022-08-19T04:36:57.069Z,0.90
2022-08-19T04:39:48.628Z,0.63
2022-08-19T04:42:34.985Z,0.60
2022-08-19T04:45:05.487Z,0.80
2022-08-19T04:47:46.915Z,0.70
2022-08-19T04:50:17.372Z,0.60
2022-08-19T04:52:45.570Z,0.80
2022-08-19T04:55:14.865Z,0.80
2022-08-19T04:57:43.168Z,0.77
2022-08-19T05:00:14.117Z,0.70
2022-08-19T05:02:42.467Z,0.85
2022-08-19T05:05:11.345Z,0.77
2022-08-19T05:07:41.259Z,0.70
2022-08-19T05:10:10.498Z,0.82
2022-08-19T05:12:39.164Z,0.73
2022-08-19T05:15:10.217Z,1.10
2022-08-19T05:18:01.708Z,0.70
2022-08-19T05:20:47.176Z,0.70
2022-08-19T05:23:21.848Z,1.23
2022-08-19T05:25:51.375Z,1.52
2022-08-19T05:28:20.090Z,1.25
2022-08-19T05:30:49.239Z,0.88
2022-08-19T05:33:19.179Z,1.30
2022-08-19T05:35:47.442Z,1.33
2022-08-19T05:38:15.697Z,1.40
2022-08-19T05:40:48.146Z,1.70
2022-08-19T05:43:17.077Z,2.03
2022-08-19T05:45:46.779Z,1.45
2022-08-19T05:48:16.036Z,2.13
2022-08-19T05:50:46.499Z,1.98
2022-08-19T05:53:17.518Z,2.00
2022-08-19T05:55:45.927Z,1.73
2022-08-19T05:58:14.380Z,1.73
2022-08-19T06:00:45.748Z,1.67
2022-08-19T06:03:14.089Z,1.95
2022-08-19T06:05:50.200Z,1.80
2022-08-19T06:08:34.170Z,1.80
2022-08-19T06:11:19.488Z,1.60
2022-08-19T06:13:59.683Z,1.33
2022-08-19T06:16:28.997Z,1.75
2022-08-19T06:18:59.164Z,1.75
2022-08-19T06:21:30.123Z,1.80
2022-08-19T06:24:00.316Z,1.70
2022-08-19T06:26:29.546Z,1.60
2022-08-19T06:28:57.769Z,1.40
2022-08-19T06:31:29.187Z,1.25
2022-08-19T06:33:57.460Z,1.20
2022-08-19T06:36:32.853Z,1.27
2022-08-19T06:39:03.689Z,1.48
2022-08-19T06:41:32.668Z,1.52
2022-08-19T06:44:00.847Z,1.55
2022-08-19T06:46:30.097Z,1.73
2022-08-19T06:49:03.534Z,1.75
2022-08-19T06:54:08.423Z,1.40
2022-08-19T06:56:47.924Z,1.52
2022-08-19T06:59:18.875Z,1.88
2022-08-19T07:01:49.286Z,1.55
2022-08-19T07:04:19.855Z,1.42
2022-08-19T07:06:54.994Z,1.58
2022-08-19T07:09:25.129Z,1.50
2022-08-19T07:11:54.783Z,1.48
2022-08-19T07:14:26.368Z,1.42
2022-08-19T07:16:56.895Z,1.35
2022-08-19T07:19:28.640Z,1.40
2022-08-19T07:21:57.735Z,1.80
2022-08-19T07:24:28.413Z,1.92
2022-08-19T07:27:04.395Z,1.20
2022-08-19T07:29:39.543Z,0.77
2022-08-19T07:32:11.634Z,0.80
2022-08-19T07:34:41.867Z,0.70
2022-08-19T07:37:11.268Z,0.60
2022-08-19T07:39:41.773Z,0.60
2022-08-19T07:42:13.306Z,0.60
2022-08-19T07:44:42.713Z,0.50
2022-08-19T07:47:49.996Z,0.60
2022-08-19T07:50:10.753Z,0.40
2022-08-19T07:52:40.751Z,0.50
2022-08-19T07:55:41.390Z,0.32
2022-08-19T07:58:01.148Z,0.60
2022-08-19T08:00:31.441Z,0.50
2022-08-19T08:02:59.729Z,0.35
2022-08-19T08:05:46.144Z,0.60
2022-08-19T08:08:37.587Z,0.40
2022-08-19T08:11:15.658Z,0.55
2022-08-19T08:13:44.173Z,0.40
2022-08-19T08:16:13.869Z,0.50
2022-08-19T08:18:50.629Z,0.52
2022-08-19T08:21:21.385Z,0.55
2022-08-19T08:23:52.063Z,0.50
2022-08-19T08:26:22.854Z,0.45
2022-08-19T08:28:51.190Z,0.60
2022-08-19T08:31:20.229Z,0.40
2022-08-19T08:33:49.494Z,0.47
2022-08-19T08:36:18.335Z,0.32
2022-08-19T08:38:47.514Z,0.80
2022-08-19T08:41:23.867Z,0.40
2022-08-19T08:43:54.596Z,0.40
2022-08-19T08:46:31.053Z,0.60
2022-08-19T08:49:08.513Z,0.40
2022-08-19T08:51:44.248Z,0.55
2022-08-19T08:54:20.052Z,0.40
2022-08-19T08:56:51.737Z,0.50
2022-08-19T08:59:26.854Z,0.50
2022-08-19T09:01:55.249Z,0.40
2022-08-19T09:04:24.246Z,0.60
2022-08-19T09:07:33.884Z,0.80
2022-08-19T09:10:04.644Z,0.50
2022-08-19T09:12:44.851Z,0.70
2022-08-19T09:15:18.569Z,0.43
2022-08-19T09:17:50.141Z,0.52
2022-08-19T09:20:22.898Z,0.50
2022-08-19T09:22:52.172Z,0.50
2022-08-19T09:25:26.646Z,0.80
2022-08-19T09:28:02.965Z,0.57
2022-08-19T09:30:40.651Z,0.50
2022-08-19T09:33:09.402Z,1.13
2022-08-19T09:35:49.636Z,0.60
2022-08-19T09:38:21.729Z,0.98
2022-08-19T09:40:50.228Z,0.77
2022-08-19T09:43:33.289Z,0.80
2022-08-19T09:46:06.423Z,0.90
2022-08-19T09:48:35.220Z,0.82
2022-08-19T09:51:11.845Z,0.85
2022-08-19T09:53:41.326Z,0.85
2022-08-19T09:56:10.024Z,0.82
2022-08-19T09:58:39.255Z,0.88
2022-08-19T10:01:10.755Z,0.65
2022-08-19T10:03:39.479Z,1.02
2022-08-19T10:06:14.902Z,0.98
2022-08-19T10:08:50.315Z,0.93
2022-08-19T10:11:28.112Z,0.75
2022-08-19T10:14:06.943Z,0.90
2022-08-19T10:16:40.276Z,1.08
2022-08-19T10:19:08.443Z,1.02
2022-08-19T10:21:36.768Z,0.90
2022-08-19T10:24:07.398Z,0.70
2022-08-19T10:26:42.763Z,0.82
2022-08-19T10:29:10.962Z,0.90
2022-08-19T10:32:01.275Z,0.90
2022-08-19T10:34:31.109Z,1.00
2022-08-19T10:37:01.779Z,1.30
2022-08-19T10:39:32.709Z,0.90
2022-08-19T10:42:11.717Z,0.82
2022-08-19T10:44:40.621Z,1.05
2022-08-19T10:47:24.437Z,0.95
2022-08-19T10:50:13.357Z,1.30
2022-08-19T10:52:49.530Z,0.90
2022-08-19T10:55:37.618Z,1.02
2022-08-19T10:58:07.052Z,1.48
2022-08-19T11:00:39.017Z,1.30
2022-08-19T11:03:09.533Z,1.48
2022-08-19T11:05:40.042Z,1.10
2022-08-19T11:08:22.228Z,1.17
2022-08-19T11:10:51.256Z,1.60
2022-08-19T11:13:19.444Z,1.85
2022-08-19T11:15:48.614Z,1.95
2022-08-19T11:18:18.762Z,2.00
2022-08-19T11:20:47.009Z,1.90
2022-08-19T11:23:15.214Z,1.98
2022-08-19T11:25:43.442Z,1.80
2022-08-19T11:28:11.711Z,2.15
2022-08-19T11:30:40.116Z,1.85
2022-08-19T11:33:08.396Z,1.85
2022-08-19T11:35:41.628Z,2.15
2022-08-19T11:38:10.017Z,1.90
2022-08-19T11:40:38.253Z,2.33
2022-08-19T11:43:07.287Z,1.95
2022-08-19T11:45:35.560Z,1.52
2022-08-19T11:48:04.757Z,1.33
2022-08-19T11:50:32.957Z,1.13
2022-08-19T11:53:02.579Z,1.67
2022-08-19T11:55:30.834Z,1.42
2022-08-19T11:57:59.213Z,1.67
2022-08-19T12:00:27.713Z,1.20
2022-08-19T12:02:56.099Z,1.70
2022-08-19T12:05:24.310Z,1.65
2022-08-19T12:07:52.559Z,1.75
2022-08-19T12:10:26.201Z,1.30
2022-08-19T12:12:58.686Z,1.50
2022-08-19T12:15:36.883Z,1.65
2022-08-19T12:18:06.225Z,1.63
2022-08-19T12:20:37.496Z,1.77
2022-08-19T12:23:06.498Z,1.88
2022-08-19T12:25:36.129Z,1.77
2022-08-19T12:28:05.435Z,1.90
2022-08-19T12:30:33.847Z,1.60
2022-08-19T12:33:02.047Z,1.67
2022-08-19T12:35:31.646Z,1.55
2022-08-19T12:38:00.246Z,1.80
2022-08-19T12:40:28.923Z,1.50
2022-08-19T12:42:58.595Z,1.35
2022-08-19T12:45:28.079Z,1.40
2022-08-19T12:47:56.544Z,1.48
2022-08-19T12:50:24.957Z,1.30
2022-08-19T12:52:53.592Z,1.33
2022-08-19T12:55:21.974Z,1.40
2022-08-19T12:57:50.387Z,1.60
2022-08-19T13:00:22.240Z,1.40
2022-08-19T13:02:52.993Z,1.27
2022-08-19T13:05:23.766Z,1.40
2022-08-19T13:07:56.099Z,1.08
2022-08-19T13:10:26.008Z,1.42
2022-08-19T13:12:55.136Z,1.17
2022-08-19T13:15:26.259Z,1.70
2022-08-19T13:17:57.135Z,1.48
2022-08-19T13:20:26.227Z,1.50
2022-08-19T13:22:54.839Z,1.23
2022-08-19T13:25:23.619Z,1.50
2022-08-19T13:27:53.128Z,1.70
2022-08-19T13:30:40.423Z,1.65
2022-08-19T13:33:15.230Z,1.40
2022-08-19T13:35:47.363Z,1.80
2022-08-19T13:38:17.528Z,1.70
2022-08-19T13:40:45.999Z,1.17
2022-08-19T13:43:22.772Z,1.70
2022-08-19T13:45:53.830Z,1.92
2022-08-19T13:48:24.835Z,1.63
2022-08-19T13:50:53.186Z,1.60
2022-08-19T13:53:21.444Z,1.65
2022-08-19T13:55:51.542Z,1.38
2022-08-19T13:58:19.990Z,1.50
2022-08-19T14:00:49.545Z,1.50
2022-08-19T14:03:17.993Z,1.75
2022-08-19T14:05:48.366Z,1.60
2022-08-19T14:08:16.676Z,1.58
2022-08-19T14:10:45.887Z,1.92
2022-08-19T14:13:18.447Z,2.35
2022-08-19T14:15:47.266Z,1.67
2022-08-19T14:18:16.299Z,1.80
2022-08-19T14:20:44.859Z,1.42
2022-08-19T14:23:14.825Z,1.88
2022-08-19T14:25:43.279Z,1.58
2022-08-19T14:28:11.839Z,2.08
2022-08-19T14:30:40.033Z,1.80
2022-08-19T14:33:09.843Z,2.22
2022-08-19T14:35:38.758Z,1.73
2022-08-19T14:38:08.447Z,1.75
2022-08-19T14:40:38.028Z,1.85
2022-08-19T14:43:07.683Z,1.90
2022-08-19T14:45:39.345Z,2.00
2022-08-19T14:48:17.831Z,1.58
2022-08-19T14:50:47.973Z,2.35
2022-08-19T14:53:18.411Z,2.40
2022-08-19T14:55:48.972Z,1.80
2022-08-19T14:58:28.913Z,1.83
2022-08-19T15:00:59.896Z,1.98
2022-08-19T15:03:28.921Z,2.05
2022-08-19T15:05:58.847Z,1.88
2022-08-19T15:08:28.124Z,1.92
2022-08-19T15:10:59.208Z,7.43
2022-08-19T15:13:29.114Z,3.17
2022-08-19T15:15:58.245Z,3.50
2022-08-19T15:18:26.504Z,2.13
2022-08-19T15:20:55.243Z,1.90
2022-08-19T15:23:23.647Z,1.70
2022-08-19T15:25:54.629Z,1.73
2022-08-19T15:28:24.830Z,1.95
2022-08-19T15:30:53.505Z,2.22
2022-08-19T15:33:22.223Z,2.28
2022-08-19T15:35:52.253Z,2.28
2022-08-19T15:38:22.320Z,1.80
2022-08-19T15:40:51.523Z,1.80
2022-08-19T15:43:22.315Z,2.00
2022-08-19T15:45:53.704Z,2.08
2022-08-19T15:48:22.017Z,1.75
2022-08-19T15:50:50.531Z,2.05
2022-08-19T15:53:18.912Z,2.22
2022-08-19T15:55:48.695Z,1.83
2022-08-19T15:58:34.592Z,1.67
2022-08-19T16:01:26.860Z,1.85
2022-08-19T16:04:15.785Z,2.08
2022-08-19T16:06:46.895Z,2.13
2022-08-19T16:09:17.124Z,1.95
2022-08-19T16:11:46.611Z,1.80
2022-08-19T16:14:15.368Z,2.05
2022-08-19T16:16:47.085Z,1.67
2022-08-19T16:19:17.960Z,1.55
2022-08-19T16:21:48.057Z,1.92
2022-08-19T16:24:18.770Z,2.03
2022-08-19T16:26:48.365Z,2.25
2022-08-19T16:29:33.986Z,1.75
2022-08-19T16:32:06.362Z,1.63
2022-08-19T16:34:34.831Z,1.60
2022-08-19T16:37:03.276Z,1.98
2022-08-19T16:39:31.843Z,1.63
2022-08-19T16:42:01.141Z,1.92
2022-08-19T16:44:30.152Z,1.63
2022-08-19T16:46:59.785Z,1.70
2022-08-19T16:49:54.227Z,2.20
2022-08-19T16:52:21.421Z,2.03
2022-08-19T16:54:50.216Z,1.52
2022-08-19T16:57:19.550Z,2.10
2022-08-19T16:59:49.572Z,1.38
2022-08-19T17:02:19.132Z,1.83
2022-08-19T17:04:58.801Z,1.80
2022-08-19T17:07:28.380Z,1.65
2022-08-19T17:09:57.077Z,1.50
2022-08-19T17:12:30.649Z,1.90
2022-08-19T17:15:02.704Z,1.75
2022-08-19T17:17:32.430Z,1.55
2022-08-19T17:20:02.850Z,1.83
2022-08-19T17:22:31.128Z,1.67
2022-08-19T17:24:59.432Z,1.95
2022-08-19T17:27:31.445Z,1.63
2022-08-19T17:30:01.339Z,1.55
2022-08-19T17:32:29.636Z,1.80
2022-08-19T17:34:57.939Z,1.73
2022-08-19T17:37:28.357Z,1.52
2022-08-19T17:39:56.912Z,1.83
2022-08-19T17:42:25.438Z,1.52
2022-08-19T17:44:53.690Z,1.73
2022-08-19T17:47:22.219Z,1.98
2022-08-19T17:49:50.575Z,1.80
2022-08-19T17:52:18.757Z,1.60
2022-08-19T17:54:48.576Z,1.80
2022-08-19T17:57:16.820Z,1.70
2022-08-19T17:59:45.075Z,1.60
2022-08-19T18:02:13.941Z,1.58
2022-08-19T18:04:48.267Z,1.40
2022-08-19T18:07:21.560Z,1.95
2022-08-19T18:09:52.985Z,2.00
2022-08-19T18:12:24.680Z,1.90
2022-08-19T18:14:52.955Z,1.90
2022-08-19T18:17:23.410Z,1.73
2022-08-19T18:19:51.748Z,1.70
2022-08-19T18:22:26.866Z,2.03
2022-08-19T18:24:57.719Z,1.58
2022-08-19T18:27:26.545Z,1.60
2022-08-19T18:29:59.766Z,1.70
2022-08-19T18:32:29.625Z,1.92
2022-08-19T18:34:58.159Z,1.73
2022-08-19T18:37:27.651Z,2.00
2022-08-19T18:40:14.958Z,1.50
2022-08-19T18:43:02.105Z,1.90
2022-08-19T18:45:47.691Z,2.08
2022-08-19T18:48:33.558Z,2.10
2022-08-19T18:51:03.045Z,2.10
2022-08-19T18:53:34.173Z,1.70
2022-08-19T18:56:03.912Z,1.63
2022-08-19T18:58:34.285Z,1.80
2022-08-19T19:01:09.312Z,1.88
2022-08-19T19:03:38.648Z,2.20
2022-08-19T19:06:07.436Z,2.40
2022-08-19T19:08:36.218Z,2.05
2022-08-19T19:11:06.363Z,2.00
2022-08-19T19:13:35.369Z,1.73
2022-08-19T19:16:04.192Z,1.85
2022-08-19T19:18:33.490Z,1.80
2022-08-19T19:21:02.193Z,1.77
2022-08-19T19:23:30.844Z,1.70
2022-08-19T19:26:01.203Z,2.00
2022-08-19T19:28:30.825Z,2.00
2022-08-19T19:30:59.824Z,2.00
2022-08-19T19:33:28.727Z,2.30
2022-08-19T19:35:57.116Z,2.10
2022-08-19T19:38:25.923Z,2.50
2022-08-19T19:40:54.399Z,1.90
2022-08-19T19:43:23.081Z,2.15
2022-08-19T19:45:52.876Z,2.05
2022-08-19T19:48:21.087Z,2.22
2022-08-19T19:50:54.096Z,2.13
2022-08-19T19:53:26.245Z,2.55
2022-08-19T19:55:57.766Z,2.05
2022-08-19T19:58:28.748Z,2.47
2022-08-19T20:00:59.900Z,2.72
2022-08-19T20:03:29.855Z,1.88
2022-08-19T20:05:59.895Z,2.65
2022-08-19T20:08:46.737Z,2.97
2022-08-19T20:11:26.066Z,2.90
2022-08-19T20:13:54.336Z,2.88
2022-08-19T20:16:25.935Z,2.75
2022-08-19T20:18:55.726Z,2.30
2022-08-19T20:21:28.058Z,2.47
2022-08-19T20:24:08.942Z,2.50
2022-08-19T20:26:38.517Z,2.30
2022-08-19T20:29:13.444Z,2.30
2022-08-19T20:31:59.504Z,2.38
2022-08-19T20:34:28.979Z,2.50
2022-08-19T20:36:57.213Z,2.08
2022-08-19T20:39:25.458Z,2.53
2022-08-19T20:41:56.714Z,2.63
2022-08-19T20:44:25.974Z,2.72
2022-08-19T20:46:57.497Z,2.50
2022-08-19T20:49:29.542Z,2.50
2022-08-19T20:51:58.575Z,2.22
2022-08-19T20:54:27.288Z,2.20
2022-08-19T20:56:56.091Z,2.47
2022-08-19T20:59:25.958Z,2.28
2022-08-19T21:01:54.752Z,2.40
2022-08-19T21:04:23.491Z,2.67
2022-08-19T21:06:53.085Z,2.55
2022-08-19T21:09:21.278Z,2.30
2022-08-19T21:11:49.627Z,2.55
2022-08-19T21:14:17.992Z,2.45
2022-08-19T21:16:46.374Z,2.70
2022-08-19T21:19:14.738Z,2.55
2022-08-19T21:21:43.004Z,2.10
2022-08-19T21:24:12.557Z,2.25
2022-08-19T21:26:41.459Z,1.67
2022-08-19T21:29:09.669Z,1.98
2022-08-19T21:31:37.855Z,1.90
2022-08-19T21:34:06.411Z,1.65
2022-08-19T21:36:35.937Z,1.83
2022-08-19T21:39:05.192Z,2.35
2022-08-19T21:41:35.447Z,2.50
2022-08-19T21:44:04.057Z,2.38
2022-08-19T21:46:33.821Z,2.00
2022-08-19T21:49:02.002Z,2.10
2022-08-19T21:51:30.246Z,1.88
2022-08-19T21:53:58.617Z,1.88
2022-08-19T21:56:27.242Z,2.60
2022-08-19T21:58:57.192Z,1.83
2022-08-19T22:01:26.175Z,2.08
2022-08-19T22:03:54.443Z,1.98
2022-08-19T22:06:23.295Z,2.72
2022-08-19T22:08:51.486Z,2.30
2022-08-19T22:11:19.663Z,2.25
2022-08-19T22:13:47.882Z,2.15
2022-08-19T22:16:18.291Z,1.73
2022-08-19T22:18:47.242Z,1.85
2022-08-19T22:21:16.011Z,1.95
2022-08-19T22:23:50.812Z,1.77
2022-08-19T22:26:19.442Z,1.90
2022-08-19T22:28:47.582Z,2.15
2022-08-19T22:31:19.623Z,2.90
2022-08-19T22:33:47.992Z,3.15
2022-08-19T22:36:17.669Z,2.28
2022-08-19T22:38:45.931Z,2.30
2022-08-19T22:41:15.854Z,2.33
2022-08-19T22:43:46.733Z,2.45
2022-08-19T22:46:17.597Z,2.42
2022-08-19T22:48:48.473Z,2.60
2022-08-19T22:51:47.440Z,2.65
2022-08-19T22:54:15.779Z,2.75
2022-08-19T22:56:44.427Z,2.05
2022-08-19T22:59:12.636Z,2.40
2022-08-19T23:01:41.978Z,2.88
2022-08-19T23:04:12.160Z,2.38
2022-08-19T23:06:42.248Z,2.40
2022-08-19T23:09:16.783Z,2.60
2022-08-19T23:11:45.754Z,2.25
2022-08-19T23:14:15.613Z,1.95
2022-08-19T23:16:50.463Z,2.65
2022-08-19T23:19:20.857Z,2.58
2022-08-19T23:21:49.929Z,2.80
2022-08-19T23:24:18.255Z,2.10
2022-08-19T23:27:00.344Z,2.90
2022-08-19T23:29:46.183Z,2.22
2022-08-19T23:32:16.817Z,2.67
2022-08-19T23:34:47.137Z,2.33
2022-08-19T23:37:15.639Z,2.70
2022-08-19T23:39:45.241Z,2.42
2022-08-19T23:42:14.698Z,2.60
2022-08-19T23:44:51.974Z,2.90
2022-08-19T23:47:21.644Z,2.35
2022-08-19T23:49:51.763Z,2.42
2022-08-19T23:52:20.386Z,2.35
2022-08-19T23:54:48.598Z,2.50
2022-08-19T23:57:16.885Z,2.60
2022-08-19T23:59:46.424Z,2.65
